Time;durP1;ratioP1;P1;durP2;ratioP2;P2;SDS_P1;SDS_P2;PMS_P1;PMS_P2;Temp;Humidity;BMP_temperature;BMP_pressure;BME280_temperature;BME280_humidity;BME280_pressure;Samples;Min_cycle;Max_cycle;Signal;HPM_P1;HPM_P2
2023/04/09 00:01:00;;;;;;;;;;;;;;;3.04;100.00;101068.13;5566531;32;34116;-71
2023/04/09 00:04:03;;;;;;;;;;;;;;;3.08;100.00;101068.75;5566565;32;34364;-70
2023/04/09 00:07:05;;;;;;;;;;;;;;;3.06;100.00;101070.63;5567792;32;34465;-70
2023/04/09 00:10:08;;;;;;;;;;;;;;;3.02;100.00;101070.00;5569133;32;34812;-69
2023/04/09 00:13:10;;;;;;;;;;;;;;;2.97;100.00;101071.25;5568967;32;35140;-69
2023/04/09 00:16:13;;;;;;;;;;;;;;;2.98;100.00;101070.31;5555321;32;34242;-69
2023/04/09 00:19:15;;;;;;;;;;;;;;;3.00;100.00;101064.03;5569076;32;34123;-69
2023/04/09 00:22:18;;;;;;;;;;;;;;;3.06;100.00;101065.41;5568726;32;34630;-68
2023/04/09 00:25:20;;;;;;;;;;;;;;;3.01;100.00;101059.63;5568818;32;34344;-69
2023/04/09 00:28:23;;;;;;;;;;;;;;;3.09;100.00;101064.37;5568916;32;34366;-70
2023/04/09 00:31:25;;;;;;;;;;;;;;;3.11;100.00;101067.69;5568968;32;34253;-69
2023/04/09 00:34:28;;;;;;;;;;;;;;;3.13;100.00;101065.84;5568853;32;34577;-69
2023/04/09 00:37:30;;;;;;;;;;;;;;;3.12;100.00;101067.59;5568840;32;34575;-69
2023/04/09 00:40:33;;;;;;;;;;;;;;;3.33;100.00;101070.56;5555002;32;33753;-69
2023/04/09 00:43:36;;;;;;;;;;;;;;;3.31;100.00;101064.56;5568491;32;34354;-70
2023/04/09 00:46:39;;;;;;;;;;;;;;;3.49;100.00;101063.31;5568292;32;34339;-69
2023/04/09 00:49:42;;;;;;;;;;;;;;;3.40;100.00;101064.78;5554728;32;34840;-70
2023/04/09 00:52:44;;;;;;;;;;;;;;;3.48;100.00;101067.75;5568390;32;34080;-69
2023/04/09 00:55:47;;;;;;;;;;;;;;;3.45;100.00;101061.84;5568383;32;34056;-70
2023/04/09 00:58:49;;;;;;;;;;;;;;;3.48;100.00;101065.13;5568413;32;34185;-69
2023/04/09 01:01:53;;;;;;;;;;;;;;;3.46;100.00;101063.53;5568525;32;34791;-70
2023/04/09 01:04:56;;;;;;;;;;;;;;;3.42;100.00;101062.91;5568612;32;34618;-69
2023/04/09 01:08:13;;;;;;;;;;;;;;;3.34;100.00;101054.72;5568563;32;34472;-69
2023/04/09 01:11:35;;;;;;;;;;;;;;;3.42;100.00;101070.78;5554786;32;34292;-70
2023/04/09 01:14:43;;;;;;;;;;;;;;;3.31;100.00;101062.78;5568427;32;34085;-69
2023/04/09 01:18:10;;;;;;;;;;;;;;;3.40;100.00;101062.16;5568009;32;34499;-69
2023/04/09 01:21:13;;;;;;;;;;;;;;;3.46;100.00;101053.87;5568332;32;33962;-69
2023/04/09 01:24:34;;;;;;;;;;;;;;;3.42;100.00;101054.19;5568465;32;34724;-69
2023/04/09 01:27:42;;;;;;;;;;;;;;;3.38;100.00;101060.59;5568677;32;34879;-68
2023/04/09 01:30:48;;;;;;;;;;;;;;;3.40;100.00;101059.53;5568340;32;34014;-69
2023/04/09 01:33:52;;;;;;;;;;;;;;;3.49;100.00;101065.94;5568651;32;34633;-68
2023/04/09 01:36:57;;;;;;;;;;;;;;;3.51;100.00;101058.81;5581463;31;34430;-69
2023/04/09 01:40:00;;;;;;;;;;;;;;;3.49;100.00;101060.69;5573967;31;34155;-69
2023/04/09 01:43:05;;;;;;;;;;;;;;;3.57;100.00;101062.78;5587720;31;34796;-68
2023/04/09 01:46:08;;;;;;;;;;;;;;;3.56;100.00;101063.72;5587717;31;34209;-69
2023/04/09 01:49:11;;;;;;;;;;;;;;;3.47;100.00;101058.19;5588008;31;34325;-69
2023/04/09 01:52:13;;;;;;;;;;;;;;;3.56;100.00;101053.25;5587791;31;34557;-69
2023/04/09 01:55:16;;;;;;;;;;;;;;;3.54;100.00;101065.59;5587748;31;34163;-68
2023/04/09 01:58:18;;;;;;;;;;;;;;;3.53;100.00;101061.34;5587670;31;34657;-68
2023/04/09 02:01:23;;;;;;;;;;;;;;;3.55;100.00;101062.03;5574020;31;34257;-68
2023/04/09 02:04:29;;;;;;;;;;;;;;;3.41;100.00;101065.62;5573787;31;34816;-68
2023/04/09 02:07:37;;;;;;;;;;;;;;;3.32;100.00;101064.47;5574080;31;34163;-68
2023/04/09 02:10:42;;;;;;;;;;;;;;;3.26;100.00;101064.03;5587929;31;34273;-69
2023/04/09 02:13:45;;;;;;;;;;;;;;;3.17;100.00;101056.81;5587704;31;34860;-69
2023/04/09 02:16:47;;;;;;;;;;;;;;;3.09;100.00;101062.59;5587569;31;34112;-68
2023/04/09 02:19:50;;;;;;;;;;;;;;;3.14;100.00;101063.13;5587481;31;35025;-69
2023/04/09 02:22:53;;;;;;;;;;;;;;;3.04;100.00;101060.28;5573600;31;34821;-69
2023/04/09 02:25:55;;;;;;;;;;;;;;;3.02;100.00;101058.69;5587424;31;33926;-69
2023/04/09 02:28:58;;;;;;;;;;;;;;;3.01;100.00;101052.59;5586866;31;34174;-69
2023/04/09 02:32:01;;;;;;;;;;;;;;;2.90;100.00;101051.66;5587551;31;34368;-69
2023/04/09 02:35:03;;;;;;;;;;;;;;;2.88;100.00;101057.00;5587367;31;34061;-69
2023/04/09 02:38:12;;;;;;;;;;;;;;;2.91;100.00;101054.16;5573525;31;33829;-69
2023/04/09 02:41:15;;;;;;;;;;;;;;;2.90;100.00;101055.13;5587562;31;33955;-69
2023/04/09 02:44:18;;;;;;;;;;;;;;;2.92;100.00;101053.22;5587187;31;34163;-69
2023/04/09 02:47:21;;;;;;;;;;;;;;;3.02;100.00;101056.91;5587296;31;34346;-69
2023/04/09 02:50:27;;;;;;;;;;;;;;;3.04;100.00;101059.44;5587201;31;34598;-69
2023/04/09 02:53:31;;;;;;;;;;;;;;;3.09;100.00;101049.47;5587206;31;34690;-69
2023/04/09 02:56:33;;;;;;;;;;;;;;;3.28;100.00;101047.28;5587199;31;34618;-69
2023/04/09 02:59:37;;;;;;;;;;;;;;;3.29;100.00;101048.94;5587307;31;34172;-69
2023/04/09 03:02:40;;;;;;;;;;;;;;;3.39;100.00;101051.75;5573184;31;34740;-68
2023/04/09 03:05:43;;;;;;;;;;;;;;;3.38;100.00;101055.34;5587038;31;35031;-68
2023/04/09 03:08:46;;;;;;;;;;;;;;;3.31;100.00;101054.94;5587007;31;34842;-68
2023/04/09 03:11:48;;;;;;;;;;;;;;;3.30;100.00;101057.66;5586949;31;34086;-68
2023/04/09 03:14:51;;;;;;;;;;;;;;;3.42;100.00;101051.56;5587164;31;34246;-68
2023/04/09 03:17:53;;;;;;;;;;;;;;;3.48;100.00;101051.16;5586903;31;33853;-68
2023/04/09 03:20:56;;;;;;;;;;;;;;;3.48;100.00;101052.00;5587054;31;34268;-68
2023/04/09 03:24:01;;;;;;;;;;;;;;;3.44;100.00;101052.28;5587170;31;34290;-68
2023/04/09 03:27:03;;;;;;;;;;;;;;;3.42;100.00;101057.66;5586908;31;34378;-68
2023/04/09 03:30:06;;;;;;;;;;;;;;;3.40;100.00;101049.06;5586816;31;34157;-68
2023/04/09 03:33:09;;;;;;;;;;;;;;;3.39;100.00;101055.22;5586792;31;34340;-68
2023/04/09 03:36:13;;;;;;;;;;;;;;;3.41;100.00;101055.97;5573174;31;34129;-68
2023/04/09 03:39:16;;;;;;;;;;;;;;;3.44;100.00;101055.75;5573143;31;34601;-68
2023/04/09 03:42:19;;;;;;;;;;;;;;;3.47;100.00;101063.44;5592356;31;33936;-69
2023/04/09 03:45:22;;;;;;;;;;;;;;;3.54;100.00;101055.13;5579163;31;34723;-68
2023/04/09 03:48:25;;;;;;;;;;;;;;;3.46;100.00;101053.03;5592941;31;34389;-68
2023/04/09 03:51:29;;;;;;;;;;;;;;;3.45;100.00;101061.84;5592854;31;34213;-68
2023/04/09 03:54:32;;;;;;;;;;;;;;;3.43;100.00;101056.72;5592650;31;34487;-68
2023/04/09 03:57:35;;;;;;;;;;;;;;;3.40;100.00;101056.91;5593199;31;34380;-68
2023/04/09 04:00:38;;;;;;;;;;;;;;;3.39;100.00;101065.72;5592967;31;34674;-68
2023/04/09 04:03:43;;;;;;;;;;;;;;;3.40;100.00;101066.56;5592734;31;34112;-68
2023/04/09 04:06:46;;;;;;;;;;;;;;;3.44;100.00;101065.41;5592484;31;34894;-68
2023/04/09 04:09:51;;;;;;;;;;;;;;;3.54;100.00;101065.59;5592601;31;34076;-68
2023/04/09 04:12:54;;;;;;;;;;;;;;;3.50;100.00;101070.22;5592501;31;34598;-69
2023/04/09 04:15:57;;;;;;;;;;;;;;;3.64;100.00;101072.75;5578643;31;34263;-69
2023/04/09 04:18:59;;;;;;;;;;;;;;;3.66;100.00;101067.41;5592430;31;34213;-69
2023/04/09 04:22:03;;;;;;;;;;;;;;;3.69;100.00;101064.53;5592411;31;34321;-68
2023/04/09 04:25:07;;;;;;;;;;;;;;;3.71;100.00;101070.53;5592255;31;34670;-68
2023/04/09 04:28:11;;;;;;;;;;;;;;;3.68;100.00;101068.16;5592096;31;34558;-68
2023/04/09 04:31:14;;;;;;;;;;;;;;;3.81;100.00;101066.31;5592180;31;34885;-68
2023/04/09 04:34:18;;;;;;;;;;;;;;;3.77;100.00;101083.25;5592167;31;34250;-68
2023/04/09 04:37:21;;;;;;;;;;;;;;;3.61;100.00;101083.47;5591913;31;34805;-68
2023/04/09 04:40:27;;;;;;;;;;;;;;;3.88;100.00;101078.06;5578335;31;33900;-68
2023/04/09 04:43:31;;;;;;;;;;;;;;;3.79;100.00;101090.03;5591745;31;34870;-68
2023/04/09 04:46:33;;;;;;;;;;;;;;;3.82;100.00;101087.22;5591831;31;34196;-69
2023/04/09 04:49:36;;;;;;;;;;;;;;;3.92;100.00;101085.59;5590522;31;33939;-68
2023/04/09 04:52:40;;;;;;;;;;;;;;;3.87;100.00;101092.16;5575517;31;34330;-68
2023/04/09 04:55:42;;;;;;;;;;;;;;;3.80;100.00;101096.12;5588239;31;34071;-69
2023/04/09 04:58:46;;;;;;;;;;;;;;;3.88;100.00;101091.19;5573204;31;33919;-69
2023/04/09 05:01:49;;;;;;;;;;;;;;;3.89;100.00;101096.34;5568003;32;33956;-68
2023/04/09 05:04:52;;;;;;;;;;;;;;;3.93;100.00;101097.78;5568393;32;34349;-69
2023/04/09 05:07:56;;;;;;;;;;;;;;;4.06;100.00;101100.41;5568307;32;34014;-69
2023/04/09 05:11:00;;;;;;;;;;;;;;;4.01;100.00;101093.81;5568463;32;34297;-69
2023/04/09 05:14:05;;;;;;;;;;;;;;;4.04;100.00;101098.81;5568481;32;34125;-68
2023/04/09 05:17:07;;;;;;;;;;;;;;;4.05;100.00;101090.84;5568418;32;34083;-67
2023/04/09 05:20:13;;;;;;;;;;;;;;;3.98;100.00;101092.22;5568499;32;34271;-70
2023/04/09 05:23:17;;;;;;;;;;;;;;;4.07;100.00;101088.94;5568252;32;34285;-70
2023/04/09 05:26:20;;;;;;;;;;;;;;;4.24;100.00;101096.47;5554380;32;32963;-67
2023/04/09 05:29:23;;;;;;;;;;;;;;;4.12;100.00;101094.69;5568175;32;34107;-69
2023/04/09 05:32:26;;;;;;;;;;;;;;;4.16;100.00;101109.31;5566935;32;34057;-69
2023/04/09 05:35:29;;;;;;;;;;;;;;;4.38;100.00;101109.44;5568445;32;34746;-69
2023/04/09 05:38:33;;;;;;;;;;;;;;;4.30;100.00;101106.53;5568522;32;33853;-70
2023/04/09 05:41:37;;;;;;;;;;;;;;;4.29;100.00;101107.47;5568677;32;34046;-69
2023/04/09 05:44:42;;;;;;;;;;;;;;;4.45;100.00;101109.00;5568070;32;33928;-68
2023/04/09 05:47:45;;;;;;;;;;;;;;;4.48;100.00;101111.41;5568182;32;33601;-68
2023/04/09 05:50:51;;;;;;;;;;;;;;;4.43;100.00;101114.38;5567504;32;34062;-69
2023/04/09 05:53:58;;;;;;;;;;;;;;;4.51;100.00;101122.53;5568187;32;34064;-69
2023/04/09 05:57:07;;;;;;;;;;;;;;;4.85;100.00;101123.53;5568171;32;34217;-69
2023/04/09 06:00:11;;;;;;;;;;;;;;;4.83;100.00;101117.56;5568152;32;34093;-69
2023/04/09 06:03:17;;;;;;;;;;;;;;;4.79;100.00;101121.37;5567110;32;34084;-69
2023/04/09 06:06:20;;;;;;;;;;;;;;;4.99;100.00;101125.13;5567750;32;35547;-68
2023/04/09 06:09:23;;;;;;;;;;;;;;;5.16;100.00;101128.19;5568040;32;33894;-68
2023/04/09 06:12:26;;;;;;;;;;;;;;;5.25;100.00;101135.41;5568077;32;33886;-69
2023/04/09 06:15:28;;;;;;;;;;;;;;;5.21;100.00;101131.34;5568021;32;34134;-69
2023/04/09 06:18:31;;;;;;;;;;;;;;;5.22;100.00;101133.00;5567912;32;33545;-69
2023/04/09 06:21:34;;;;;;;;;;;;;;;5.14;100.00;101131.87;5567897;32;34381;-68
2023/04/09 06:24:36;;;;;;;;;;;;;;;5.13;100.00;101138.94;5567634;32;34989;-69
2023/04/09 06:27:39;;;;;;;;;;;;;;;5.26;100.00;101138.87;5567419;32;34854;-69
2023/04/09 06:30:41;;;;;;;;;;;;;;;5.47;100.00;101139.88;5567714;32;34215;-69
2023/04/09 06:33:44;;;;;;;;;;;;;;;5.50;100.00;101133.53;5567632;32;34196;-69
2023/04/09 06:36:46;;;;;;;;;;;;;;;5.32;100.00;101132.31;5567531;32;34124;-69
2023/04/09 06:39:49;;;;;;;;;;;;;;;5.42;100.00;101138.56;5569567;31;34626;-69
2023/04/09 06:43:03;;;;;;;;;;;;;;;5.35;100.00;101140.81;5567213;32;34610;-69
2023/04/09 06:46:10;;;;;;;;;;;;;;;5.45;100.00;101138.31;5567589;32;34173;-69
2023/04/09 06:49:13;;;;;;;;;;;;;;;5.57;100.00;101137.38;5567466;32;34689;-69
2023/04/09 06:52:15;;;;;;;;;;;;;;;5.50;100.00;101133.53;5567377;32;34190;-69
2023/04/09 06:55:18;;;;;;;;;;;;;;;5.71;100.00;101145.09;5566487;32;34557;-69
2023/04/09 06:58:20;;;;;;;;;;;;;;;5.88;100.00;101147.25;5567260;32;34276;-69
2023/04/09 07:01:24;;;;;;;;;;;;;;;5.78;100.00;101137.53;5567764;32;34352;-68
2023/04/09 07:04:27;;;;;;;;;;;;;;;5.45;100.00;101152.31;5566612;32;33935;-68
2023/04/09 07:07:30;;;;;;;;;;;;;;;5.80;100.00;101147.00;5566525;32;34306;-68
2023/04/09 07:10:33;;;;;;;;;;;;;;;5.45;100.00;101154.94;5567378;32;34694;-67
2023/04/09 07:13:36;;;;;;;;;;;;;;;5.34;100.00;101162.81;5566481;32;33990;-68
2023/04/09 07:16:38;;;;;;;;;;;;;;;5.34;100.00;101162.81;5566945;32;33876;-68
2023/04/09 07:19:41;;;;;;;;;;;;;;;5.57;100.00;101159.25;5567729;32;34751;-69
2023/04/09 07:22:43;;;;;;;;;;;;;;;5.92;100.00;101163.66;5567285;32;34260;-69
2023/04/09 07:25:47;;;;;;;;;;;;;;;6.41;100.00;101171.19;5567135;32;34415;-68
2023/04/09 07:28:49;;;;;;;;;;;;;;;6.61;100.00;101172.25;5567202;32;33912;-68
2023/04/09 07:31:52;;;;;;;;;;;;;;;5.94;100.00;101174.94;5567204;32;34814;-68
2023/04/09 07:34:56;;;;;;;;;;;;;;;5.82;100.00;101166.13;5566119;32;34899;-68
2023/04/09 07:37:58;;;;;;;;;;;;;;;5.81;100.00;101171.53;5566846;32;34818;-67
2023/04/09 07:41:01;;;;;;;;;;;;;;;5.86;100.00;101172.84;5566969;32;33983;-67
2023/04/09 07:44:05;;;;;;;;;;;;;;;5.57;100.00;101168.94;5566560;32;34135;-67
2023/04/09 07:47:07;;;;;;;;;;;;;;;5.78;100.00;101169.97;5566703;32;34245;-68
2023/04/09 07:50:10;;;;;;;;;;;;;;;5.93;100.00;101170.59;5566583;32;34236;-68
2023/04/09 07:53:13;;;;;;;;;;;;;;;6.03;100.00;101179.47;5565729;31;34944;-67
2023/04/09 07:56:17;;;;;;;;;;;;;;;6.35;100.00;101184.84;5566052;31;34286;-67
2023/04/09 07:59:19;;;;;;;;;;;;;;;6.74;100.00;101184.31;5566416;32;34259;-66
2023/04/09 08:02:22;;;;;;;;;;;;;;;6.49;100.00;101185.44;5565739;31;34002;-68
2023/04/09 08:05:27;;;;;;;;;;;;;;;7.09;100.00;101178.81;5566253;32;34773;-68
2023/04/09 08:08:29;;;;;;;;;;;;;;;7.64;100.00;101188.28;5566395;32;34091;-68
2023/04/09 08:11:32;;;;;;;;;;;;;;;7.79;100.00;101184.31;5566531;32;34985;-67
2023/04/09 08:14:34;;;;;;;;;;;;;;;8.02;100.00;101178.88;5552571;32;34614;-67
2023/04/09 08:17:37;;;;;;;;;;;;;;;8.22;100.00;101184.12;5566332;32;34102;-67
2023/04/09 08:20:43;;;;;;;;;;;;;;;8.16;100.00;101183.81;5573429;31;34358;-68
2023/04/09 08:23:46;;;;;;;;;;;;;;;8.01;100.00;101190.41;5565904;32;34760;-68
2023/04/09 08:26:49;;;;;;;;;;;;;;;8.25;100.00;101189.13;5566217;32;35092;-67
2023/04/09 08:29:51;;;;;;;;;;;;;;;8.47;100.00;101193.41;5567936;32;34169;-67
2023/04/09 08:32:54;;;;;;;;;;;;;;;8.07;100.00;101190.75;5581169;31;33737;-67
2023/04/09 08:35:57;;;;;;;;;;;;;;;8.13;100.00;101192.81;5574301;31;34788;-67
2023/04/09 08:38:59;;;;;;;;;;;;;;;8.11;100.00;101201.88;5588324;31;34620;-67
2023/04/09 08:42:05;;;;;;;;;;;;;;;8.25;100.00;101197.06;5574229;31;34185;-68
2023/04/09 08:45:08;;;;;;;;;;;;;;;8.57;100.00;101204.00;5588042;31;34743;-67
2023/04/09 08:48:12;;;;;;;;;;;;;;;8.23;100.00;101196.34;5574396;31;34566;-67
2023/04/09 08:51:15;;;;;;;;;;;;;;;8.38;100.00;101209.25;5587882;31;34695;-68
2023/04/09 08:54:18;;;;;;;;;;;;;;;8.58;100.00;101209.19;5588017;31;34377;-67
2023/04/09 08:57:21;;;;;;;;;;;;;;;8.27;100.00;101205.72;5587844;31;34935;-68
2023/04/09 09:00:24;;;;;;;;;;;;;;;8.31;100.00;101205.47;5567812;31;33402;-69
2023/04/09 09:03:26;;;;;;;;;;;;;;;8.48;100.00;101218.88;5568335;32;34113;-69
2023/04/09 09:06:31;;;;;;;;;;;;;;;9.57;100.00;101216.97;5568398;32;34707;-69
2023/04/09 09:09:48;;;;;;;;;;;;;;;9.38;100.00;101221.44;5565966;31;34219;-68
2023/04/09 09:12:51;;;;;;;;;;;;;;;8.49;100.00;101225.84;5573872;31;34079;-68
2023/04/09 09:16:10;;;;;;;;;;;;;;;9.03;100.00;101225.44;5587680;31;34334;-68
2023/04/09 09:19:25;;;;;;;;;;;;;;;9.94;100.00;101224.97;5588081;31;34844;-68
2023/04/09 09:22:28;;;;;;;;;;;;;;;9.28;100.00;101220.59;5587800;31;34204;-69
2023/04/09 09:25:36;;;;;;;;;;;;;;;9.15;100.00;101221.69;5587747;31;34208;-69
2023/04/09 09:28:39;;;;;;;;;;;;;;;9.54;100.00;101213.75;5587367;31;34407;-69
2023/04/09 09:31:46;;;;;;;;;;;;;;;9.67;100.00;101216.94;5583798;31;34240;-69
2023/04/09 09:35:18;;;;;;;;;;;;;;;10.25;100.00;101216.84;5572126;31;34517;-68
2023/04/09 09:38:20;;;;;;;;;;;;;;;10.49;91.39;101219.81;5571283;31;34657;-69
2023/04/09 09:41:23;;;;;;;;;;;;;;;10.64;92.40;101215.69;5587806;31;33784;-69
2023/04/09 09:44:30;;;;;;;;;;;;;;;9.87;96.66;101220.41;5587480;31;34807;-69
2023/04/09 09:47:33;;;;;;;;;;;;;;;10.14;94.82;101220.47;5573997;31;34221;-68
2023/04/09 09:50:37;;;;;;;;;;;;;;;8.94;96.65;101214.84;5587775;31;34755;-68
2023/04/09 09:53:42;;;;;;;;;;;;;;;9.31;98.36;101209.72;5587739;31;34357;-68
2023/04/09 09:56:45;;;;;;;;;;;;;;;9.57;96.31;101216.97;5586896;31;34814;-67
2023/04/09 09:59:58;;;;;;;;;;;;;;;8.59;100.00;101215.31;5587112;31;34086;-68
2023/04/09 10:03:06;;;;;;;;;;;;;;;8.79;100.00;101203.81;5587594;31;34382;-68
2023/04/09 10:06:10;;;;;;;;;;;;;;;8.11;100.00;101205.34;5586955;31;34070;-68
2023/04/09 10:09:14;;;;;;;;;;;;;;;7.92;100.00;101207.91;5570873;31;34240;-69
2023/04/09 10:12:21;;;;;;;;;;;;;;;8.52;100.00;101212.34;5568023;32;34151;-68
2023/04/09 10:15:24;;;;;;;;;;;;;;;8.46;100.00;101206.78;5567846;32;34236;-69
2023/04/09 10:18:32;;;;;;;;;;;;;;;8.62;100.00;101205.28;5567355;31;34804;-69
2023/04/09 10:21:39;;;;;;;;;;;;;;;8.78;100.00;101207.44;5568248;32;34275;-69
2023/04/09 10:24:44;;;;;;;;;;;;;;;8.80;100.00;101213.44;5567811;32;34269;-68
2023/04/09 10:27:58;;;;;;;;;;;;;;;8.81;100.00;101215.06;5567740;32;34427;-68
2023/04/09 10:31:03;;;;;;;;;;;;;;;9.04;100.00;101213.88;5567548;32;34445;-68
2023/04/09 10:34:06;;;;;;;;;;;;;;;8.94;100.00;101204.25;5567679;32;34334;-69
2023/04/09 10:37:19;;;;;;;;;;;;;;;9.41;99.55;101205.25;5566838;32;33982;-69
2023/04/09 10:40:21;;;;;;;;;;;;;;;9.05;100.00;101206.78;5572105;31;33959;-68
2023/04/09 10:43:24;;;;;;;;;;;;;;;9.19;100.00;101203.72;5571031;31;34059;-68
2023/04/09 10:46:33;;;;;;;;;;;;;;;9.40;97.74;101208.88;5587200;31;34751;-68
2023/04/09 10:49:39;;;;;;;;;;;;;;;9.50;98.33;101207.91;5586281;31;34248;-68
2023/04/09 10:52:43;;;;;;;;;;;;;;;9.86;96.57;101211.62;5587423;31;34261;-70
2023/04/09 10:55:52;;;;;;;;;;;;;;;10.00;96.23;101207.66;5587271;31;34820;-69
2023/04/09 10:58:55;;;;;;;;;;;;;;;10.31;91.62;101201.16;5573154;31;34236;-68
2023/04/09 11:01:58;;;;;;;;;;;;;;;10.44;87.59;101198.19;5586642;31;34468;-69
2023/04/09 11:05:03;;;;;;;;;;;;;;;10.27;89.44;101205.09;5573342;31;34178;-70
2023/04/09 11:08:10;;;;;;;;;;;;;;;10.52;93.48;101202.75;5573354;31;34224;-68
2023/04/09 11:11:13;;;;;;;;;;;;;;;10.16;91.14;101196.50;5580612;31;34257;-70
2023/04/09 11:14:19;;;;;;;;;;;;;;;9.88;95.86;101199.03;5569011;31;35223;-68
2023/04/09 11:17:21;;;;;;;;;;;;;;;9.68;94.46;101197.44;5566018;32;34265;-69
2023/04/09 11:20:25;;;;;;;;;;;;;;;9.85;94.61;101199.34;5567596;31;34107;-69
2023/04/09 11:23:28;;;;;;;;;;;;;;;9.39;100.00;101200.09;5566030;32;34869;-69
2023/04/09 11:26:34;;;;;;;;;;;;;;;9.02;100.00;101196.47;5565772;31;34100;-69
2023/04/09 11:29:37;;;;;;;;;;;;;;;8.94;100.00;101196.31;5565873;32;32790;-69
2023/04/09 11:32:40;;;;;;;;;;;;;;;9.15;100.00;101189.06;5564989;32;34050;-69
2023/04/09 11:35:42;;;;;;;;;;;;;;;9.77;97.46;101191.28;5565008;32;34345;-70
2023/04/09 11:38:46;;;;;;;;;;;;;;;9.96;96.51;101195.69;5567203;32;33957;-68
2023/04/09 11:41:49;;;;;;;;;;;;;;;9.95;94.23;101192.19;5566504;32;34194;-69
2023/04/09 11:44:52;;;;;;;;;;;;;;;10.65;91.33;101187.34;5566576;32;33998;-70
2023/04/09 11:47:55;;;;;;;;;;;;;;;11.30;84.78;101194.13;5567625;31;33926;-69
2023/04/09 11:50:58;;;;;;;;;;;;;;;12.06;80.89;101187.25;5566792;32;34212;-68
2023/04/09 11:54:02;;;;;;;;;;;;;;;11.93;77.24;101194.81;5566714;32;34874;-68
2023/04/09 11:57:05;;;;;;;;;;;;;;;11.57;76.97;101187.91;5565676;32;34223;-69
2023/04/09 12:00:12;;;;;;;;;;;;;;;11.35;76.57;101191.84;5569855;31;34111;-69
2023/04/09 12:03:15;;;;;;;;;;;;;;;11.80;77.73;101194.41;5568299;32;34347;-69
2023/04/09 12:06:19;;;;;;;;;;;;;;;11.09;79.89;101185.63;5584077;31;34596;-70
2023/04/09 12:09:22;;;;;;;;;;;;;;;11.80;78.69;101185.59;5588670;31;33880;-69
2023/04/09 12:12:25;;;;;;;;;;;;;;;11.42;77.82;101192.09;5588681;31;34700;-70
2023/04/09 12:15:31;;;;;;;;;;;;;;;11.76;76.32;101185.87;5588708;31;34774;-69
2023/04/09 12:18:35;;;;;;;;;;;;;;;11.98;77.88;101186.37;5588814;31;34112;-69
2023/04/09 12:21:51;;;;;;;;;;;;;;;13.28;67.12;101179.66;5561901;31;34238;-69
2023/04/09 12:24:56;;;;;;;;;;;;;;;14.16;58.97;101176.06;5588522;31;35129;-69
2023/04/09 12:28:00;;;;;;;;;;;;;;;14.12;61.50;101180.09;5588444;31;34722;-69
2023/04/09 12:31:02;;;;;;;;;;;;;;;14.90;56.07;101182.78;5588496;31;34123;-69
2023/04/09 12:34:05;;;;;;;;;;;;;;;14.83;57.88;101173.78;5588360;31;34467;-69
2023/04/09 12:37:07;;;;;;;;;;;;;;;14.03;58.43;101165.09;5568942;31;34663;-69
2023/04/09 12:40:12;;;;;;;;;;;;;;;13.89;58.49;101166.63;5568481;32;34309;-70
2023/04/09 12:43:15;;;;;;;;;;;;;;;15.92;53.66;101170.78;5568522;32;34418;-70
2023/04/09 12:46:18;;;;;;;;;;;;;;;18.24;46.99;101161.22;5567838;32;34860;-69
2023/04/09 12:49:20;;;;;;;;;;;;;;;18.45;44.60;101162.97;5569089;32;34560;-71
2023/04/09 12:52:23;;;;;;;;;;;;;;;18.57;44.62;101155.19;5567620;31;33890;-72
2023/04/09 12:55:26;;;;;;;;;;;;;;;16.72;46.60;101146.69;5585479;31;35591;-69
2023/04/09 12:58:30;;;;;;;;;;;;;;;15.05;50.66;101153.44;5588832;31;33938;-71
2023/04/09 13:01:32;;;;;;;;;;;;;;;14.18;55.12;101155.37;5588713;31;33887;-70
2023/04/09 13:04:35;;;;;;;;;;;;;;;18.52;44.13;101153.06;5573978;31;34226;-72
2023/04/09 13:07:38;;;;;;;;;;;;;;;19.29;40.74;101157.22;5588507;31;34172;-70
2023/04/09 13:10:44;;;;;;;;;;;;;;;16.99;46.62;101146.00;5580305;31;34143;-70
2023/04/09 13:13:46;;;;;;;;;;;;;;;18.09;44.51;101138.19;5567766;32;34614;-70
2023/04/09 13:16:51;;;;;;;;;;;;;;;17.77;44.40;101137.78;5568166;32;34868;-69
2023/04/09 13:19:53;;;;;;;;;;;;;;;17.81;44.56;101138.25;5575071;31;34108;-69
2023/04/09 13:22:56;;;;;;;;;;;;;;;16.76;46.50;101132.75;5576021;31;34823;-70
2023/04/09 13:26:00;;;;;;;;;;;;;;;19.97;41.50;101134.41;5568657;32;34333;-70
2023/04/09 13:29:03;;;;;;;;;;;;;;;19.47;39.64;101144.00;5568580;32;34075;-69
2023/04/09 13:32:06;;;;;;;;;;;;;;;15.65;48.15;101126.72;5570731;31;34249;-70
2023/04/09 13:35:10;;;;;;;;;;;;;;;19.14;41.34;101130.50;5567998;32;34338;-70
2023/04/09 13:38:12;;;;;;;;;;;;;;;22.23;35.34;101122.72;5568541;32;34319;-71
2023/04/09 13:41:15;;;;;;;;;;;;;;;24.65;30.78;101125.97;5568011;32;34734;-69
2023/04/09 13:44:17;;;;;;;;;;;;;;;24.44;29.19;101121.25;5568204;32;34127;-70
2023/04/09 13:47:20;;;;;;;;;;;;;;;24.67;29.60;101125.75;5554390;32;34596;-71
2023/04/09 13:50:23;;;;;;;;;;;;;;;25.94;27.24;101112.41;5568195;32;34462;-70
2023/04/09 13:53:25;;;;;;;;;;;;;;;27.95;25.69;101125.56;5567541;32;34065;-71
2023/04/09 13:56:29;;;;;;;;;;;;;;;30.64;22.33;101119.88;5568199;32;34342;-70
2023/04/09 13:59:32;;;;;;;;;;;;;;;26.25;25.78;101108.19;5568001;32;34099;-72
2023/04/09 14:02:36;;;;;;;;;;;;;;;25.05;28.19;101104.22;5569582;31;33959;-71
2023/04/09 14:05:48;;;;;;;;;;;;;;;23.54;28.71;101101.06;5553842;32;34318;-70
2023/04/09 14:08:51;;;;;;;;;;;;;;;24.49;28.09;101096.94;5559284;31;33795;-72
2023/04/09 14:11:55;;;;;;;;;;;;;;;25.50;26.60;101100.59;5558352;31;34136;-72
2023/04/09 14:14:57;;;;;;;;;;;;;;;22.32;29.36;101094.31;5570119;31;34715;-68
2023/04/09 14:18:00;;;;;;;;;;;;;;;18.62;34.93;101088.22;5572171;31;34553;-71
2023/04/09 14:21:02;;;;;;;;;;;;;;;16.39;39.68;101084.69;5568509;31;33947;-70
2023/04/09 14:24:05;;;;;;;;;;;;;;;14.94;43.39;101077.22;5564993;32;34075;-70
2023/04/09 14:27:09;;;;;;;;;;;;;;;14.28;44.68;101073.25;5568049;31;34272;-70
2023/04/09 14:30:12;;;;;;;;;;;;;;;14.29;47.20;101077.59;5565384;32;34167;-70
2023/04/09 14:33:15;;;;;;;;;;;;;;;14.41;45.77;101069.22;5568933;31;34186;-70
2023/04/09 14:36:17;;;;;;;;;;;;;;;13.33;49.19;101066.25;5566326;31;34477;-70
2023/04/09 14:39:20;;;;;;;;;;;;;;;14.21;47.65;101061.63;5566276;31;34304;-69
2023/04/09 14:42:23;;;;;;;;;;;;;;;14.37;45.11;101063.41;5565039;31;33902;-68
2023/04/09 14:45:26;;;;;;;;;;;;;;;14.21;45.55;101066.97;5566283;31;34634;-70
2023/04/09 14:48:31;;;;;;;;;;;;;;;14.44;45.50;101064.34;5551678;32;34125;-70
2023/04/09 14:51:34;;;;;;;;;;;;;;;14.87;44.58;101062.06;5553013;31;33766;-70
2023/04/09 14:54:37;;;;;;;;;;;;;;;15.77;43.32;101060.22;5565763;31;34238;-70
2023/04/09 14:57:39;;;;;;;;;;;;;;;14.49;44.13;101059.31;5582352;31;34374;-70
2023/04/09 15:00:43;;;;;;;;;;;;;;;15.09;43.17;101064.72;5570284;31;34135;-70
2023/04/09 15:03:46;;;;;;;;;;;;;;;15.11;45.00;101061.84;5553559;32;33953;-70
2023/04/09 15:06:49;;;;;;;;;;;;;;;14.45;45.57;101063.34;5575224;31;34991;-70
2023/04/09 15:09:52;;;;;;;;;;;;;;;13.38;48.31;101052.41;5570485;31;34344;-70
2023/04/09 15:12:54;;;;;;;;;;;;;;;12.52;49.92;101060.03;5579978;31;34382;-69
2023/04/09 15:15:57;;;;;;;;;;;;;;;12.45;50.55;101049.22;5586748;31;34220;-70
2023/04/09 15:19:01;;;;;;;;;;;;;;;11.92;55.48;101049.56;5570615;31;34018;-69
2023/04/09 15:22:04;;;;;;;;;;;;;;;11.53;55.47;101050.97;5567124;32;34271;-70
2023/04/09 15:25:06;;;;;;;;;;;;;;;11.27;55.30;101057.16;5576299;31;34662;-69
2023/04/09 15:28:09;;;;;;;;;;;;;;;10.70;57.57;101057.66;5567336;32;34181;-69
2023/04/09 15:31:12;;;;;;;;;;;;;;;10.51;61.11;101055.16;5564228;32;34808;-69
2023/04/09 15:34:14;;;;;;;;;;;;;;;10.63;58.57;101049.50;5566414;32;34591;-69
2023/04/09 15:37:17;;;;;;;;;;;;;;;10.57;58.84;101054.56;5566269;32;33206;-69
2023/04/09 15:40:20;;;;;;;;;;;;;;;10.21;71.12;101053.72;5566552;32;34826;-68
2023/04/09 15:43:23;;;;;;;;;;;;;;;10.08;72.39;101048.72;5566641;32;34084;-69
2023/04/09 15:46:25;;;;;;;;;;;;;;;10.08;72.90;101046.06;5566561;32;34732;-68